sensor_id;sensor_type;location;lat;lon;timestamp;pressure;altitude;pressure_sealevel;temperature;humidity
28008;BME280;15333;50.010;20.020;2023-02-15T00:01:08;100509.06;;;3.63;91.43
28008;BME280;15333;50.010;20.020;2023-02-15T00:04:09;100503.88;;;3.60;91.89
28008;BME280;15333;50.010;20.020;2023-02-15T00:07:17;100505.50;;;3.65;91.18
28008;BME280;15333;50.010;20.020;2023-02-15T00:10:18;100495.97;;;3.57;91.94
28008;BME280;15333;50.010;20.020;2023-02-15T00:13:19;100505.47;;;3.67;92.14
28008;BME280;15333;50.010;20.020;2023-02-15T00:16:20;100499.50;;;3.55;91.28
28008;BME280;15333;50.010;20.020;2023-02-15T00:19:21;100501.38;;;3.50;92.73
28008;BME280;15333;50.010;20.020;2023-02-15T00:22:22;100503.13;;;3.51;91.86
28008;BME280;15333;50.010;20.020;2023-02-15T00:25:23;100492.28;;;3.64;92.39
28008;BME280;15333;50.010;20.020;2023-02-15T00:28:24;100490.53;;;3.63;91.70
28008;BME280;15333;50.010;20.020;2023-02-15T00:31:25;100488.28;;;3.44;92.24
28008;BME280;15333;50.010;20.020;2023-02-15T00:34:27;100487.44;;;3.42;92.41
28008;BME280;15333;50.010;20.020;2023-02-15T00:37:31;100485.75;;;3.38;92.20
28008;BME280;15333;50.010;20.020;2023-02-15T00:40:32;100487.50;;;3.39;92.73
28008;BME280;15333;50.010;20.020;2023-02-15T00:46:53;100484.94;;;3.35;92.66
28008;BME280;15333;50.010;20.020;2023-02-15T00:49:55;100484.13;;;3.31;93.63
28008;BME280;15333;50.010;20.020;2023-02-15T00:52:55;100477.72;;;3.43;94.40
28008;BME280;15333;50.010;20.020;2023-02-15T00:55:57;100470.59;;;3.46;93.65
28008;BME280;15333;50.010;20.020;2023-02-15T00:58:58;100466.22;;;3.45;92.43
28008;BME280;15333;50.010;20.020;2023-02-15T01:01:59;100468.13;;;3.37;93.20
28008;BME280;15333;50.010;20.020;2023-02-15T01:05:00;100464.59;;;3.38;92.91
28008;BME280;15333;50.010;20.020;2023-02-15T01:08:01;100462.72;;;3.43;93.12
28008;BME280;15333;50.010;20.020;2023-02-15T01:11:14;100457.06;;;3.62;91.56
28008;BME280;15333;50.010;20.020;2023-02-15T01:14:15;100457.28;;;3.49;91.06
28008;BME280;15333;50.010;20.020;2023-02-15T01:17:16;100445.03;;;3.45;91.76
28008;BME280;15333;50.010;20.020;2023-02-15T01:20:22;100443.25;;;3.47;91.97
28008;BME280;15333;50.010;20.020;2023-02-15T01:23:24;100446.91;;;3.40;92.23
28008;BME280;15333;50.010;20.020;2023-02-15T01:26:25;100449.63;;;3.36;92.46
28008;BME280;15333;50.010;20.020;2023-02-15T01:29:26;100448.72;;;3.38;93.06
28008;BME280;15333;50.010;20.020;2023-02-15T01:32:28;100450.47;;;3.39;91.71
28008;BME280;15333;50.010;20.020;2023-02-15T01:35:29;100445.56;;;3.20;93.37
28008;BME280;15333;50.010;20.020;2023-02-15T01:38:30;100443.97;;;3.11;94.02
28008;BME280;15333;50.010;20.020;2023-02-15T01:41:31;100435.03;;;3.15;94.29
28008;BME280;15333;50.010;20.020;2023-02-15T01:44:48;100439.28;;;3.24;93.52
28008;BME280;15333;50.010;20.020;2023-02-15T01:51:00;100438.53;;;3.17;94.48
28008;BME280;15333;50.010;20.020;2023-02-15T01:54:07;100427.53;;;3.38;93.94
28008;BME280;15333;50.010;20.020;2023-02-15T01:57:16;100434.81;;;3.27;93.40
28008;BME280;15333;50.010;20.020;2023-02-15T02:00:18;100427.88;;;3.20;94.45
28008;BME280;15333;50.010;20.020;2023-02-15T02:03:30;100427.97;;;3.17;94.85
28008;BME280;15333;50.010;20.020;2023-02-15T02:06:38;100422.72;;;3.14;95.14
28008;BME280;15333;50.010;20.020;2023-02-15T02:09:41;100416.50;;;3.17;94.52
28008;BME280;15333;50.010;20.020;2023-02-15T02:12:44;100408.69;;;3.12;94.34
28008;BME280;15333;50.010;20.020;2023-02-15T02:16:00;100398.78;;;3.20;93.60
28008;BME280;15333;50.010;20.020;2023-02-15T02:35:30;100405.47;;;2.95;96.59
28008;BME280;15333;50.010;20.020;2023-02-15T02:42:02;100396.50;;;3.02;97.13
28008;BME280;15333;50.010;20.020;2023-02-15T02:48:41;100390.47;;;2.95;95.82
28008;BME280;15333;50.010;20.020;2023-02-15T02:51:42;100393.97;;;2.97;95.89
28008;BME280;15333;50.010;20.020;2023-02-15T02:54:44;100392.25;;;2.95;96.60
28008;BME280;15333;50.010;20.020;2023-02-15T03:04:29;100387.94;;;2.91;96.89
28008;BME280;15333;50.010;20.020;2023-02-15T03:07:33;100391.47;;;2.90;96.83
28008;BME280;15333;50.010;20.020;2023-02-15T03:10:37;100382.31;;;3.06;96.60
28008;BME280;15333;50.010;20.020;2023-02-15T03:13:40;100392.16;;;2.99;96.62
28008;BME280;15333;50.010;20.020;2023-02-15T03:16:42;100378.91;;;3.01;96.04
28008;BME280;15333;50.010;20.020;2023-02-15T03:19:48;100378.84;;;3.04;96.89
28008;BME280;15333;50.010;20.020;2023-02-15T03:22:53;100380.09;;;2.85;96.81
28008;BME280;15333;50.010;20.020;2023-02-15T03:25:59;100384.59;;;2.80;97.40
28008;BME280;15333;50.010;20.020;2023-02-15T03:29:04;100379.38;;;2.77;98.72
28008;BME280;15333;50.010;20.020;2023-02-15T03:32:09;100374.09;;;2.77;98.08
28008;BME280;15333;50.010;20.020;2023-02-15T03:35:11;100374.09;;;2.77;98.95
28008;BME280;15333;50.010;20.020;2023-02-15T03:38:17;100359.91;;;2.81;97.94
28008;BME280;15333;50.010;20.020;2023-02-15T03:41:23;100361.69;;;2.79;97.95
28008;BME280;15333;50.010;20.020;2023-02-15T03:51:56;100359.19;;;2.72;98.80
28008;BME280;15333;50.010;20.020;2023-02-15T03:54:58;100363.56;;;2.73;98.96
28008;BME280;15333;50.010;20.020;2023-02-15T03:57:59;100357.44;;;2.71;98.03
28008;BME280;15333;50.010;20.020;2023-02-15T04:01:26;100360.03;;;2.74;98.43
28008;BME280;15333;50.010;20.020;2023-02-15T04:04:47;100355.72;;;2.69;98.56
28008;BME280;15333;50.010;20.020;2023-02-15T04:07:48;100364.53;;;2.69;98.19
28008;BME280;15333;50.010;20.020;2023-02-15T04:10:49;100355.78;;;2.66;99.13
28008;BME280;15333;50.010;20.020;2023-02-15T04:13:52;100363.69;;;2.67;99.04
28008;BME280;15333;50.010;20.020;2023-02-15T04:16:56;100363.44;;;2.80;98.85
28008;BME280;15333;50.010;20.020;2023-02-15T04:19:58;100361.69;;;2.79;98.29
28008;BME280;15333;50.010;20.020;2023-02-15T04:23:17;100358.63;;;2.55;99.30
28008;BME280;15333;50.010;20.020;2023-02-15T04:26:37;100360.31;;;2.59;99.73
28008;BME280;15333;50.010;20.020;2023-02-15T04:29:38;100354.16;;;2.57;100.00
28008;BME280;15333;50.010;20.020;2023-02-15T04:32:39;100352.38;;;2.59;100.00
28008;BME280;15333;50.010;20.020;2023-02-15T04:35:40;100354.09;;;2.62;100.00
28008;BME280;15333;50.010;20.020;2023-02-15T04:38:41;100353.34;;;2.55;100.00
28008;BME280;15333;50.010;20.020;2023-02-15T04:41:42;100357.38;;;2.74;99.72
28008;BME280;15333;50.010;20.020;2023-02-15T04:44:43;100355.13;;;2.53;100.00
28008;BME280;15333;50.010;20.020;2023-02-15T04:47:44;100353.44;;;2.49;100.00
28008;BME280;15333;50.010;20.020;2023-02-15T04:50:45;100343.66;;;2.54;100.00
28008;BME280;15333;50.010;20.020;2023-02-15T04:53:46;100342.00;;;2.49;100.00
28008;BME280;15333;50.010;20.020;2023-02-15T04:56:47;100349.06;;;2.48;100.00
28008;BME280;15333;50.010;20.020;2023-02-15T04:59:48;100355.06;;;2.56;100.00
28008;BME280;15333;50.010;20.020;2023-02-15T05:02:49;100353.81;;;2.77;100.00
28008;BME280;15333;50.010;20.020;2023-02-15T05:05:50;100358.44;;;2.64;100.00
28008;BME280;15333;50.010;20.020;2023-02-15T05:08:51;100357.81;;;2.52;100.00
28008;BME280;15333;50.010;20.020;2023-02-15T05:11:52;100361.28;;;2.54;100.00
28008;BME280;15333;50.010;20.020;2023-02-15T05:14:53;100362.94;;;2.59;100.00
28008;BME280;15333;50.010;20.020;2023-02-15T05:17:54;100359.44;;;2.59;100.00
28008;BME280;15333;50.010;20.020;2023-02-15T05:20:55;100358.63;;;2.55;100.00
28008;BME280;15333;50.010;20.020;2023-02-15T05:23:55;100355.25;;;2.47;100.00
28008;BME280;15333;50.010;20.020;2023-02-15T05:26:56;100356.25;;;2.40;100.00
28008;BME280;15333;50.010;20.020;2023-02-15T05:30:16;100365.97;;;2.38;100.00
28008;BME280;15333;50.010;20.020;2023-02-15T05:33:17;100359.97;;;2.28;100.00
28008;BME280;15333;50.010;20.020;2023-02-15T05:36:18;100362.44;;;2.39;100.00
28008;BME280;15333;50.010;20.020;2023-02-15T05:39:19;100367.44;;;2.54;100.00
28008;BME280;15333;50.010;20.020;2023-02-15T05:42:20;100364.06;;;2.46;100.00
28008;BME280;15333;50.010;20.020;2023-02-15T05:45:21;100359.81;;;2.38;100.00
28008;BME280;15333;50.010;20.020;2023-02-15T05:48:24;100363.38;;;2.35;100.00
28008;BME280;15333;50.010;20.020;2023-02-15T05:51:25;100361.50;;;2.42;100.00
28008;BME280;15333;50.010;20.020;2023-02-15T05:54:26;100372.13;;;2.39;100.00
28008;BME280;15333;50.010;20.020;2023-02-15T05:57:27;100369.50;;;2.37;100.00
28008;BME280;15333;50.010;20.020;2023-02-15T06:00:28;100362.31;;;2.45;100.00
28008;BME280;15333;50.010;20.020;2023-02-15T06:03:29;100365.88;;;2.44;100.00
28008;BME280;15333;50.010;20.020;2023-02-15T06:06:30;100365.06;;;2.39;100.00
28008;BME280;15333;50.010;20.020;2023-02-15T06:09:31;100360.78;;;2.32;100.00
28008;BME280;15333;50.010;20.020;2023-02-15T06:12:32;100365.25;;;2.28;100.00
28008;BME280;15333;50.010;20.020;2023-02-15T06:15:33;100364.34;;;2.31;100.00
28008;BME280;15333;50.010;20.020;2023-02-15T06:18:34;100363.22;;;2.44;100.00
28008;BME280;15333;50.010;20.020;2023-02-15T06:21:35;100366.72;;;2.46;100.00
28008;BME280;15333;50.010;20.020;2023-02-15T06:24:35;100367.50;;;2.51;100.00
28008;BME280;15333;50.010;20.020;2023-02-15T06:27:37;100364.00;;;2.49;100.00
28008;BME280;15333;50.010;20.020;2023-02-15T06:30:38;100369.13;;;2.58;100.00
28008;BME280;15333;50.010;20.020;2023-02-15T06:33:39;100365.75;;;2.50;100.00
28008;BME280;15333;50.010;20.020;2023-02-15T06:36:40;100359.47;;;2.56;100.00
28008;BME280;15333;50.010;20.020;2023-02-15T06:39:41;100361.03;;;2.67;100.00
28008;BME280;15333;50.010;20.020;2023-02-15T06:42:43;100368.34;;;2.53;100.00
28008;BME280;15333;50.010;20.020;2023-02-15T06:45:45;100365.56;;;2.62;100.00
28008;BME280;15333;50.010;20.020;2023-02-15T06:48:45;100366.34;;;2.66;100.00
28008;BME280;15333;50.010;20.020;2023-02-15T06:51:46;100367.34;;;2.60;100.00
28008;BME280;15333;50.010;20.020;2023-02-15T06:54:48;100365.25;;;2.78;99.71
28008;BME280;15333;50.010;20.020;2023-02-15T06:57:49;100353.78;;;2.79;100.00
28008;BME280;15333;50.010;20.020;2023-02-15T07:00:51;100363.56;;;2.73;100.00
28008;BME280;15333;50.010;20.020;2023-02-15T07:03:52;100361.69;;;2.79;100.00
28008;BME280;15333;50.010;20.020;2023-02-15T07:06:53;100355.88;;;3.06;97.80
28008;BME280;15333;50.010;20.020;2023-02-15T07:09:54;100362.13;;;3.02;97.73
28008;BME280;15333;50.010;20.020;2023-02-15T07:12:55;100362.13;;;3.03;97.37
28008;BME280;15333;50.010;20.020;2023-02-15T07:15:56;100363.03;;;3.01;97.69
28008;BME280;15333;50.010;20.020;2023-02-15T07:18:57;100368.56;;;2.89;97.13
28008;BME280;15333;50.010;20.020;2023-02-15T07:21:58;100364.28;;;2.83;96.52
28008;BME280;15333;50.010;20.020;2023-02-15T07:24:59;100358.94;;;2.85;98.78
28008;BME280;15333;50.010;20.020;2023-02-15T07:28:02;100356.28;;;2.86;97.14
28008;BME280;15333;50.010;20.020;2023-02-15T07:31:04;100359.38;;;2.62;98.23
28008;BME280;15333;50.010;20.020;2023-02-15T07:34:06;100357.66;;;2.61;99.22
28008;BME280;15333;50.010;20.020;2023-02-15T07:37:08;100352.88;;;2.80;97.62
28008;BME280;15333;50.010;20.020;2023-02-15T07:40:10;100352.88;;;2.80;97.68
28008;BME280;15333;50.010;20.020;2023-02-15T07:43:11;100347.59;;;2.80;99.21
28008;BME280;15333;50.010;20.020;2023-02-15T07:46:14;100347.88;;;3.09;96.61
28008;BME280;15333;50.010;20.020;2023-02-15T07:49:15;100327.13;;;3.32;94.77
28008;BME280;15333;50.010;20.020;2023-02-15T07:52:16;100345.81;;;3.25;93.95
28008;BME280;15333;50.010;20.020;2023-02-15T07:55:17;100344.38;;;3.48;93.01
28008;BME280;15333;50.010;20.020;2023-02-15T07:58:19;100346.34;;;3.40;93.55
28008;BME280;15333;50.010;20.020;2023-02-15T08:01:29;100347.59;;;3.63;92.75
28008;BME280;15333;50.010;20.020;2023-02-15T08:04:31;100342.09;;;3.72;92.29
28008;BME280;15333;50.010;20.020;2023-02-15T08:07:32;100335.00;;;3.74;91.23
28008;BME280;15333;50.010;20.020;2023-02-15T08:10:34;100338.50;;;3.76;90.25
28008;BME280;15333;50.010;20.020;2023-02-15T08:13:59;100338.75;;;3.64;91.46
28008;BME280;15333;50.010;20.020;2023-02-15T08:17:00;100329.59;;;3.78;91.39
28008;BME280;15333;50.010;20.020;2023-02-15T08:20:06;100323.44;;;4.13;90.06
28008;BME280;15333;50.010;20.020;2023-02-15T08:23:07;100324.56;;;4.05;88.71
28008;BME280;15333;50.010;20.020;2023-02-15T08:26:08;100329.19;;;3.95;89.47
28008;BME280;15333;50.010;20.020;2023-02-15T08:29:09;100321.06;;;4.03;88.70
28008;BME280;15333;50.010;20.020;2023-02-15T08:32:11;100324.47;;;4.08;89.49
28008;BME280;15333;50.010;20.020;2023-02-15T08:35:13;100313.88;;;4.08;88.02
28008;BME280;15333;50.010;20.020;2023-02-15T08:38:14;100313.22;;;3.98;88.93
28008;BME280;15333;50.010;20.020;2023-02-15T08:41:29;100317.47;;;4.05;89.76
28008;BME280;15333;50.010;20.020;2023-02-15T08:44:30;100315.31;;;3.84;91.04
28008;BME280;15333;50.010;20.020;2023-02-15T08:47:31;100314.84;;;3.68;91.15
28008;BME280;15333;50.010;20.020;2023-02-15T08:50:32;100308.03;;;3.57;91.61
28008;BME280;15333;50.010;20.020;2023-02-15T08:53:34;100308.94;;;3.55;91.16
28008;BME280;15333;50.010;20.020;2023-02-15T08:56:37;100310.13;;;3.42;93.45
28008;BME280;15333;50.010;20.020;2023-02-15T08:59:38;100307.13;;;3.58;92.59
28008;BME280;15333;50.010;20.020;2023-02-15T09:02:39;100307.78;;;3.69;91.00
28008;BME280;15333;50.010;20.020;2023-02-15T09:05:40;100307.69;;;3.72;91.40
28008;BME280;15333;50.010;20.020;2023-02-15T09:08:41;100302.97;;;3.84;90.74
28008;BME280;15333;50.010;20.020;2023-02-15T09:11:44;100302.56;;;4.01;89.67
28008;BME280;15333;50.010;20.020;2023-02-15T09:14:45;100295.19;;;4.12;89.05
28008;BME280;15333;50.010;20.020;2023-02-15T09:17:46;100294.97;;;4.21;88.63
28008;BME280;15333;50.010;20.020;2023-02-15T09:20:47;100290.88;;;4.10;89.23
28008;BME280;15333;50.010;20.020;2023-02-15T09:23:50;100288.03;;;4.17;89.42
28008;BME280;15333;50.010;20.020;2023-02-15T09:26:51;100285.22;;;4.23;88.72
28008;BME280;15333;50.010;20.020;2023-02-15T09:29:52;100286.84;;;4.27;88.67
28008;BME280;15333;50.010;20.020;2023-02-15T09:32:53;100282.78;;;4.14;89.17
28008;BME280;15333;50.010;20.020;2023-02-15T09:35:54;100284.47;;;4.18;88.76
28008;BME280;15333;50.010;20.020;2023-02-15T09:49:24;100272.78;;;4.58;87.69
28008;BME280;15333;50.010;20.020;2023-02-15T10:15:50;100237.59;;;5.13;85.78
28008;BME280;15333;50.010;20.020;2023-02-15T10:19:22;100241.28;;;5.07;85.01
28008;BME280;15333;50.010;20.020;2023-02-15T10:29:38;100226.78;;;5.19;86.10
28008;BME280;15333;50.010;20.020;2023-02-15T10:32:58;100214.22;;;5.26;85.45
28008;BME280;15333;50.010;20.020;2023-02-15T10:36:23;100211.84;;;5.44;84.44
28008;BME280;15333;50.010;20.020;2023-02-15T10:46:45;100210.97;;;5.70;83.56
28008;BME280;15333;50.010;20.020;2023-02-15T10:50:17;100209.06;;;5.75;83.37
28008;BME280;15333;50.010;20.020;2023-02-15T10:57:42;100203.53;;;5.81;81.95
28008;BME280;15333;50.010;20.020;2023-02-15T11:00:35;100188.06;;;5.94;81.70
28008;BME280;15333;50.010;20.020;2023-02-15T11:07:38;100185.03;;;6.05;81.62
28008;BME280;15333;50.010;20.020;2023-02-15T11:10:51;100174.53;;;6.02;81.79
28008;BME280;15333;50.010;20.020;2023-02-15T11:14:15;100173.00;;;6.19;81.15
28008;BME280;15333;50.010;20.020;2023-02-15T11:17:41;100165.19;;;6.15;80.77
28008;BME280;15333;50.010;20.020;2023-02-15T11:20:55;100162.81;;;6.32;80.66
28008;BME280;15333;50.010;20.020;2023-02-15T11:23:59;100164.19;;;6.42;79.90
28008;BME280;15333;50.010;20.020;2023-02-15T11:27:05;100162.06;;;6.52;79.21
28008;BME280;15333;50.010;20.020;2023-02-15T11:30:29;100154.53;;;6.40;79.75
28008;BME280;15333;50.010;20.020;2023-02-15T11:33:39;100153.03;;;6.56;78.97
28008;BME280;15333;50.010;20.020;2023-02-15T11:36:44;100145.59;;;6.65;78.92
28008;BME280;15333;50.010;20.020;2023-02-15T11:39:46;100147.91;;;6.75;78.05
28008;BME280;15333;50.010;20.020;2023-02-15T11:42:56;100132.16;;;6.68;77.89
28008;BME280;15333;50.010;20.020;2023-02-15T11:45:59;100122.72;;;6.83;77.41
28008;BME280;15333;50.010;20.020;2023-02-15T11:49:00;100120.91;;;7.07;77.15
28008;BME280;15333;50.010;20.020;2023-02-15T11:52:05;100113.00;;;7.04;76.24
28008;BME280;15333;50.010;20.020;2023-02-15T11:55:12;100127.44;;;6.98;76.73
28008;BME280;15333;50.010;20.020;2023-02-15T11:58:23;100124.41;;;6.86;76.88
28008;BME280;15333;50.010;20.020;2023-02-15T12:01:35;100119.81;;;7.11;76.34
28008;BME280;15333;50.010;20.020;2023-02-15T12:04:40;100107.88;;;7.21;76.05
28008;BME280;15333;50.010;20.020;2023-02-15T12:10:57;100104.06;;;7.28;75.46
28008;BME280;15333;50.010;20.020;2023-02-15T12:14:03;100093.50;;;7.25;75.71
28008;BME280;15333;50.010;20.020;2023-02-15T12:17:13;100087.75;;;7.36;75.68
28008;BME280;15333;50.010;20.020;2023-02-15T12:23:15;100078.63;;;7.41;75.31
28008;BME280;15333;50.010;20.020;2023-02-15T12:26:31;100074.78;;;7.48;74.75
28008;BME280;15333;50.010;20.020;2023-02-15T12:29:39;100071.19;;;7.50;74.14
28008;BME280;15333;50.010;20.020;2023-02-15T12:32:51;100070.13;;;7.54;74.33
28008;BME280;15333;50.010;20.020;2023-02-15T12:35:57;100073.19;;;7.44;74.53
28008;BME280;15333;50.010;20.020;2023-02-15T12:42:16;100068.91;;;7.61;73.30
28008;BME280;15333;50.010;20.020;2023-02-15T12:45:26;100059.88;;;7.65;74.19
28008;BME280;15333;50.010;20.020;2023-02-15T12:48:27;100061.81;;;7.81;73.88
28008;BME280;15333;50.010;20.020;2023-02-15T12:51:28;100051.88;;;7.85;73.29
28008;BME280;15333;50.010;20.020;2023-02-15T12:54:32;100052.75;;;7.85;74.25
28008;BME280;15333;50.010;20.020;2023-02-15T12:57:34;100050.44;;;7.97;73.18
28008;BME280;15333;50.010;20.020;2023-02-15T13:00:35;100053.81;;;8.02;73.07
28008;BME280;15333;50.010;20.020;2023-02-15T13:04:03;100041.34;;;8.02;73.62
28008;BME280;15333;50.010;20.020;2023-02-15T13:07:10;100044.41;;;7.93;73.43
28008;BME280;15333;50.010;20.020;2023-02-15T13:10:23;100041.41;;;8.01;73.21
28008;BME280;15333;50.010;20.020;2023-02-15T13:13:27;100031.72;;;7.98;72.93
28008;BME280;15333;50.010;20.020;2023-02-15T13:16:32;100031.44;;;8.04;72.75
28008;BME280;15333;50.010;20.020;2023-02-15T13:19:39;100029.31;;;8.12;72.68
28008;BME280;15333;50.010;20.020;2023-02-15T13:22:44;100033.59;;;7.96;72.47
28008;BME280;15333;50.010;20.020;2023-02-15T13:25:47;100026.06;;;8.06;72.31
28008;BME280;15333;50.010;20.020;2023-02-15T13:28:54;100026.41;;;7.98;72.17
28008;BME280;15333;50.010;20.020;2023-02-15T13:31:58;100020.19;;;7.98;71.70
28008;BME280;15333;50.010;20.020;2023-02-15T13:35:01;100022.22;;;8.11;72.63
28008;BME280;15333;50.010;20.020;2023-02-15T13:47:45;100006.91;;;8.16;72.13
28008;BME280;15333;50.010;20.020;2023-02-15T13:51:07;100000.91;;;8.11;71.66
28008;BME280;15333;50.010;20.020;2023-02-15T14:00:42;99993.25;;;8.04;73.49
28008;BME280;15333;50.010;20.020;2023-02-15T14:07:41;99994.56;;;7.95;73.90
28008;BME280;15333;50.010;20.020;2023-02-15T14:11:02;99998.28;;;7.91;74.60
28008;BME280;15333;50.010;20.020;2023-02-15T14:21:06;99982.59;;;7.85;74.67
28008;BME280;15333;50.010;20.020;2023-02-15T14:24:37;99985.66;;;7.76;75.05
28008;BME280;15333;50.010;20.020;2023-02-15T14:27:54;99981.34;;;7.73;75.41
28008;BME280;15333;50.010;20.020;2023-02-15T14:30:56;99977.81;;;7.73;75.16
28008;BME280;15333;50.010;20.020;2023-02-15T14:33:58;99976.94;;;7.72;75.70
28008;BME280;15333;50.010;20.020;2023-02-15T14:37:00;99977.81;;;7.73;75.40
28008;BME280;15333;50.010;20.020;2023-02-15T14:40:19;99974.34;;;7.71;75.64
28008;BME280;15333;50.010;20.020;2023-02-15T14:47:09;99976.16;;;7.50;76.47
28008;BME280;15333;50.010;20.020;2023-02-15T14:53:39;99963.06;;;7.45;77.44
28008;BME280;15333;50.010;20.020;2023-02-15T14:56:40;99965.19;;;7.37;77.28
28008;BME280;15333;50.010;20.020;2023-02-15T15:02:59;99964.00;;;7.24;78.33
28008;BME280;15333;50.010;20.020;2023-02-15T15:06:02;99962.28;;;7.23;78.86
28008;BME280;15333;50.010;20.020;2023-02-15T15:09:25;99957.22;;;7.17;79.11
28008;BME280;15333;50.010;20.020;2023-02-15T15:15:45;99950.66;;;7.04;80.22
28008;BME280;15333;50.010;20.020;2023-02-15T15:18:48;99963.31;;;6.99;80.83
28008;BME280;15333;50.010;20.020;2023-02-15T15:25:10;99955.28;;;6.79;81.98
28008;BME280;15333;50.010;20.020;2023-02-15T15:31:51;99946.34;;;6.59;84.04
28008;BME280;15333;50.010;20.020;2023-02-15T15:35:04;99950.34;;;6.48;84.73
28008;BME280;15333;50.010;20.020;2023-02-15T15:42:01;99943.31;;;6.25;86.63
28008;BME280;15333;50.010;20.020;2023-02-15T15:48:35;99946.00;;;6.02;88.80
28008;BME280;15333;50.010;20.020;2023-02-15T15:51:41;99939.28;;;5.92;89.19
28008;BME280;15333;50.010;20.020;2023-02-15T15:54:44;99944.13;;;5.80;90.45
28008;BME280;15333;50.010;20.020;2023-02-15T15:57:49;99942.78;;;5.69;91.47
28008;BME280;15333;50.010;20.020;2023-02-15T16:01:10;99945.84;;;5.58;92.35
28008;BME280;15333;50.010;20.020;2023-02-15T16:04:24;99944.44;;;5.48;93.35
28008;BME280;15333;50.010;20.020;2023-02-15T16:07:26;99941.22;;;5.40;94.04
28008;BME280;15333;50.010;20.020;2023-02-15T16:10:29;99942.38;;;5.33;94.44
28008;BME280;15333;50.010;20.020;2023-02-15T16:13:33;99943.50;;;5.26;95.38
28008;BME280;15333;50.010;20.020;2023-02-15T16:16:34;99942.94;;;5.16;95.75
28008;BME280;15333;50.010;20.020;2023-02-15T16:19:38;99944.13;;;5.07;96.46
28008;BME280;15333;50.010;20.020;2023-02-15T16:22:39;99939.03;;;5.01;97.79
28008;BME280;15333;50.010;20.020;2023-02-15T16:25:55;99940.34;;;4.90;98.07
28008;BME280;15333;50.010;20.020;2023-02-15T16:29:01;99933.50;;;4.83;99.23
28008;BME280;15333;50.010;20.020;2023-02-15T16:32:27;99941.72;;;4.75;99.94
28008;BME280;15333;50.010;20.020;2023-02-15T16:35:28;99943.63;;;4.70;100.00
28008;BME280;15333;50.010;20.020;2023-02-15T16:41:43;99929.97;;;4.56;100.00
28008;BME280;15333;50.010;20.020;2023-02-15T16:45:34;99939.03;;;4.49;100.00
28008;BME280;15333;50.010;20.020;2023-02-15T16:48:28;99933.06;;;4.42;100.00
28008;BME280;15333;50.010;20.020;2023-02-15T16:51:33;99938.50;;;4.39;100.00
28008;BME280;15333;50.010;20.020;2023-02-15T16:54:34;99944.75;;;4.37;100.00
28008;BME280;15333;50.010;20.020;2023-02-15T16:57:38;99939.66;;;4.30;100.00
28008;BME280;15333;50.010;20.020;2023-02-15T17:00:39;99940.59;;;4.28;100.00
28008;BME280;15333;50.010;20.020;2023-02-15T17:03:48;99938.09;;;4.23;100.00
28008;BME280;15333;50.010;20.020;2023-02-15T17:07:17;99942.75;;;4.17;100.00
28008;BME280;15333;50.010;20.020;2023-02-15T17:10:28;99935.03;;;4.09;100.00
28008;BME280;15333;50.010;20.020;2023-02-15T17:13:29;99935.22;;;4.03;100.00
28008;BME280;15333;50.010;20.020;2023-02-15T17:16:35;99937.13;;;3.98;100.00
28008;BME280;15333;50.010;20.020;2023-02-15T17:19:50;99932.00;;;3.92;100.00
28008;BME280;15333;50.010;20.020;2023-02-15T17:22:53;99940.97;;;3.88;100.00
28008;BME280;15333;50.010;20.020;2023-02-15T17:25:55;99930.63;;;3.80;100.00
28008;BME280;15333;50.010;20.020;2023-02-15T17:29:19;99931.75;;;3.72;100.00
28008;BME280;15333;50.010;20.020;2023-02-15T17:32:22;99929.38;;;3.63;100.00
28008;BME280;15333;50.010;20.020;2023-02-15T17:35:27;99933.25;;;3.51;100.00
28008;BME280;15333;50.010;20.020;2023-02-15T17:38:28;99931.00;;;3.37;100.00
28008;BME280;15333;50.010;20.020;2023-02-15T17:41:31;99928.69;;;3.25;100.00
28008;BME280;15333;50.010;20.020;2023-02-15T17:44:34;99925.41;;;3.17;100.00
28008;BME280;15333;50.010;20.020;2023-02-15T17:47:35;99934.22;;;3.16;100.00
28008;BME280;15333;50.010;20.020;2023-02-15T17:50:36;99921.06;;;3.13;100.00
28008;BME280;15333;50.010;20.020;2023-02-15T17:53:37;99922.09;;;3.09;100.00
28008;BME280;15333;50.010;20.020;2023-02-15T17:56:38;99914.19;;;3.07;100.00
28008;BME280;15333;50.010;20.020;2023-02-15T17:59:41;99917.22;;;2.94;100.00
28008;BME280;15333;50.010;20.020;2023-02-15T18:03:00;99912.16;;;2.85;100.00
28008;BME280;15333;50.010;20.020;2023-02-15T18:06:20;99914.16;;;2.77;100.00
28008;BME280;15333;50.010;20.020;2023-02-15T18:09:39;99915.16;;;2.71;100.00
28008;BME280;15333;50.010;20.020;2023-02-15T18:12:59;99909.16;;;2.64;100.00
28008;BME280;15333;50.010;20.020;2023-02-15T18:16:00;99910.16;;;2.60;100.00
28008;BME280;15333;50.010;20.020;2023-02-15T18:19:02;99913.13;;;2.48;100.00
28008;BME280;15333;50.010;20.020;2023-02-15T18:22:11;99913.25;;;2.42;100.00
28008;BME280;15333;50.010;20.020;2023-02-15T18:25:14;99906.69;;;2.23;100.00
28008;BME280;15333;50.010;20.020;2023-02-15T18:28:15;99900.97;;;2.04;100.00
28008;BME280;15333;50.010;20.020;2023-02-15T18:31:16;99906.47;;;1.95;100.00
28008;BME280;15333;50.010;20.020;2023-02-15T18:34:26;99907.63;;;1.83;100.00
28008;BME280;15333;50.010;20.020;2023-02-15T18:37:30;99903.72;;;1.61;100.00
28008;BME280;15333;50.010;20.020;2023-02-15T18:40:35;99908.44;;;1.45;100.00
28008;BME280;15333;50.010;20.020;2023-02-15T18:43:36;99905.25;;;1.30;100.00
28008;BME280;15333;50.010;20.020;2023-02-15T18:46:37;99907.25;;;1.18;100.00
28008;BME280;15333;50.010;20.020;2023-02-15T18:49:38;99903.88;;;1.10;100.00
28008;BME280;15333;50.010;20.020;2023-02-15T18:52:39;99896.84;;;1.11;100.00
28008;BME280;15333;50.010;20.020;2023-02-15T18:55:41;99898.75;;;1.47;100.00